sensor_id;sensor_type;location;lat;lon;timestamp;pressure;altitude;pressure_sealevel;temperature;humidity
34241;BME280;20503;50.200;19.508;2023-04-20T16:55:43;101745.30;;;14.22;71.53
34241;BME280;20503;50.200;19.508;2023-04-20T17:00:51;101750.60;;;14.17;70.09
34241;BME280;20503;50.200;19.508;2023-04-20T17:05:58;101753.55;;;14.16;70.65
34241;BME280;20503;50.200;19.508;2023-04-20T17:11:07;101743.32;;;14.03;73.56
34241;BME280;20503;50.200;19.508;2023-04-20T17:16:14;101746.66;;;13.92;76.39
34241;BME280;20503;50.200;19.508;2023-04-20T17:21:22;101751.66;;;13.69;79.92
34241;BME280;20503;50.200;19.508;2023-04-20T17:26:30;101749.37;;;13.39;80.79
34241;BME280;20503;50.200;19.508;2023-04-20T17:31:37;101746.26;;;13.14;82.62
34241;BME280;20503;50.200;19.508;2023-04-20T17:36:45;101745.64;;;12.92;82.63
34241;BME280;20503;50.200;19.508;2023-04-20T17:41:53;101747.98;;;12.67;83.52
34241;BME280;20503;50.200;19.508;2023-04-20T17:47:03;101753.99;;;12.56;83.51
34241;BME280;20503;50.200;19.508;2023-04-20T17:52:10;101751.19;;;12.50;85.00
34241;BME280;20503;50.200;19.508;2023-04-20T17:57:20;101737.73;;;12.34;86.00
34241;BME280;20503;50.200;19.508;2023-04-20T18:02:25;101749.18;;;12.16;84.65
34241;BME280;20503;50.200;19.508;2023-04-20T18:07:33;101749.28;;;12.08;84.97
34241;BME280;20503;50.200;19.508;2023-04-20T18:12:43;101753.60;;;11.96;84.96
34241;BME280;20503;50.200;19.508;2023-04-20T18:17:50;101747.95;;;11.83;84.61
34241;BME280;20503;50.200;19.508;2023-04-20T18:22:57;101753.36;;;11.77;85.22
34241;BME280;20503;50.200;19.508;2023-04-20T18:28:05;101760.28;;;11.44;87.10
34241;BME280;20503;50.200;19.508;2023-04-20T18:33:13;101763.11;;;11.21;87.85
34241;BME280;20503;50.200;19.508;2023-04-20T18:38:21;101764.16;;;11.06;89.11
34241;BME280;20503;50.200;19.508;2023-04-20T18:43:30;101767.90;;;10.91;90.99
34241;BME280;20503;50.200;19.508;2023-04-20T18:48:38;101759.84;;;10.75;92.64
34241;BME280;20503;50.200;19.508;2023-04-20T18:53:46;101762.55;;;10.60;93.67
34241;BME280;20503;50.200;19.508;2023-04-20T18:58:55;101755.55;;;10.35;96.73
34241;BME280;20503;50.200;19.508;2023-04-20T19:04:03;101761.48;;;10.47;94.24
34241;BME280;20503;50.200;19.508;2023-04-20T19:09:10;101775.09;;;10.32;94.44
34241;BME280;20503;50.200;19.508;2023-04-20T19:14:18;101766.82;;;10.18;96.22
34241;BME280;20503;50.200;19.508;2023-04-20T19:19:25;101761.36;;;10.40;89.74
34241;BME280;20503;50.200;19.508;2023-04-20T19:24:33;101761.80;;;10.66;88.03
34241;BME280;20503;50.200;19.508;2023-04-20T19:29:41;101765.66;;;10.57;89.20
34241;BME280;20503;50.200;19.508;2023-04-20T19:34:49;101765.78;;;10.64;88.65
34241;BME280;20503;50.200;19.508;2023-04-20T19:39:57;101763.34;;;10.83;87.43
34241;BME280;20503;50.200;19.508;2023-04-20T19:45:05;101763.06;;;10.78;87.68
34241;BME280;20503;50.200;19.508;2023-04-20T19:50:12;101758.57;;;11.00;85.97
34241;BME280;20503;50.200;19.508;2023-04-20T19:55:19;101759.42;;;11.29;81.75
34241;BME280;20503;50.200;19.508;2023-04-20T20:00:27;101752.26;;;11.57;79.96
34241;BME280;20503;50.200;19.508;2023-04-20T20:05:34;101761.51;;;11.70;78.76
34241;BME280;20503;50.200;19.508;2023-04-20T20:10:42;101754.14;;;11.71;78.82
34241;BME280;20503;50.200;19.508;2023-04-20T20:15:51;101750.05;;;11.81;76.90
34241;BME280;20503;50.200;19.508;2023-04-20T20:20:58;101742.78;;;11.74;78.33
34241;BME280;20503;50.200;19.508;2023-04-20T20:26:05;101753.75;;;11.74;77.00
34241;BME280;20503;50.200;19.508;2023-04-20T20:31:13;101752.26;;;11.57;76.96
34241;BME280;20503;50.200;19.508;2023-04-20T20:36:21;101748.48;;;11.58;76.13
34241;BME280;20503;50.200;19.508;2023-04-20T20:41:29;101750.26;;;11.36;76.99
34241;BME280;20503;50.200;19.508;2023-04-20T20:46:38;101747.70;;;11.35;76.86
34241;BME280;20503;50.200;19.508;2023-04-20T20:51:46;101759.03;;;11.32;76.72
34241;BME280;20503;50.200;19.508;2023-04-20T20:56:53;101762.73;;;11.24;77.07
34241;BME280;20503;50.200;19.508;2023-04-20T21:02:01;101743.91;;;11.21;76.95
34241;BME280;20503;50.200;19.508;2023-04-20T21:07:08;101754.23;;;11.19;76.72
34241;BME280;20503;50.200;19.508;2023-04-20T21:12:16;101751.77;;;10.96;78.07
34241;BME280;20503;50.200;19.508;2023-04-20T21:17:23;101757.86;;;10.83;78.34
34241;BME280;20503;50.200;19.508;2023-04-20T21:22:31;101742.95;;;10.71;79.16
34241;BME280;20503;50.200;19.508;2023-04-20T21:27:39;101745.88;;;10.47;80.14
34241;BME280;20503;50.200;19.508;2023-04-20T21:32:47;101748.34;;;10.42;80.30
34241;BME280;20503;50.200;19.508;2023-04-20T21:37:56;101753.84;;;10.57;79.25
34241;BME280;20503;50.200;19.508;2023-04-20T21:43:02;101746.00;;;10.54;79.76
34241;BME280;20503;50.200;19.508;2023-04-20T21:48:10;101746.49;;;10.57;79.11
34241;BME280;20503;50.200;19.508;2023-04-20T21:53:18;101746.12;;;10.60;78.53
34241;BME280;20503;50.200;19.508;2023-04-20T21:58:26;101750.02;;;10.80;76.70
34241;BME280;20503;50.200;19.508;2023-04-20T22:03:34;101745.98;;;10.91;75.51
34241;BME280;20503;50.200;19.508;2023-04-20T22:08:41;101746.19;;;10.89;74.95
34241;BME280;20503;50.200;19.508;2023-04-20T22:13:49;101746.75;;;10.99;74.00
34241;BME280;20503;50.200;19.508;2023-04-20T22:18:57;101746.57;;;11.01;73.73
34241;BME280;20503;50.200;19.508;2023-04-20T22:24:05;101741.64;;;10.96;72.88
34241;BME280;20503;50.200;19.508;2023-04-20T22:29:12;101748.55;;;10.92;73.11
34241;BME280;20503;50.200;19.508;2023-04-20T22:34:20;101749.85;;;10.82;72.71
34241;BME280;20503;50.200;19.508;2023-04-20T22:39:28;101756.32;;;10.66;72.99
34241;BME280;20503;50.200;19.508;2023-04-20T22:44:35;101754.62;;;10.65;72.32
34241;BME280;20503;50.200;19.508;2023-04-20T22:49:44;101755.63;;;10.27;75.16
34241;BME280;20503;50.200;19.508;2023-04-20T22:54:51;101753.81;;;10.42;72.22
34241;BME280;20503;50.200;19.508;2023-04-20T22:59:58;101747.20;;;10.51;72.33
34241;BME280;20503;50.200;19.508;2023-04-20T23:05:06;101749.82;;;10.00;75.36
34241;BME280;20503;50.200;19.508;2023-04-20T23:10:14;101751.55;;;9.93;74.99
34241;BME280;20503;50.200;19.508;2023-04-20T23:15:22;101761.15;;;10.19;71.02
34241;BME280;20503;50.200;19.508;2023-04-20T23:20:30;101752.52;;;10.53;69.48
34241;BME280;20503;50.200;19.508;2023-04-20T23:25:37;101747.28;;;10.80;67.86
34241;BME280;20503;50.200;19.508;2023-04-20T23:30:46;101752.33;;;11.06;66.16
34241;BME280;20503;50.200;19.508;2023-04-20T23:35:53;101742.23;;;10.55;67.96
34241;BME280;20503;50.200;19.508;2023-04-20T23:41:00;101737.32;;;9.75;73.00
34241;BME280;20503;50.200;19.508;2023-04-20T23:46:08;101725.67;;;9.81;72.83
34241;BME280;20503;50.200;19.508;2023-04-20T23:51:18;101734.64;;;10.79;66.70
34241;BME280;20503;50.200;19.508;2023-04-20T23:56:23;101728.71;;;10.90;66.78
